sensor_id;sensor_type;location;lat;lon;timestamp;temperature;humidity
13496;DHT22;6820;49.374;8.452;2023-12-20T00:03:01;6.10;99.99
13496;DHT22;6820;49.374;8.452;2023-12-20T00:07:02;6.11;99.99
13496;DHT22;6820;49.374;8.452;2023-12-20T00:11:04;6.11;99.99
13496;DHT22;6820;49.374;8.452;2023-12-20T00:15:06;6.14;99.99
13496;DHT22;6820;49.374;8.452;2023-12-20T00:19:08;6.16;99.99
13496;DHT22;6820;49.374;8.452;2023-12-20T00:23:10;6.16;99.99
13496;DHT22;6820;49.374;8.452;2023-12-20T00:27:11;6.17;99.99
13496;DHT22;6820;49.374;8.452;2023-12-20T00:31:13;6.17;99.99
13496;DHT22;6820;49.374;8.452;2023-12-20T00:35:16;6.17;99.99
13496;DHT22;6820;49.374;8.452;2023-12-20T00:39:17;6.19;99.99
13496;DHT22;6820;49.374;8.452;2023-12-20T00:43:19;6.19;99.99
13496;DHT22;6820;49.374;8.452;2023-12-20T00:47:21;6.19;99.99
13496;DHT22;6820;49.374;8.452;2023-12-20T00:51:23;6.20;99.99
13496;DHT22;6820;49.374;8.452;2023-12-20T00:55:25;6.20;99.99
13496;DHT22;6820;49.374;8.452;2023-12-20T00:59:27;6.20;99.99
13496;DHT22;6820;49.374;8.452;2023-12-20T01:03:28;6.20;99.99
13496;DHT22;6820;49.374;8.452;2023-12-20T01:07:30;6.19;99.99
13496;DHT22;6820;49.374;8.452;2023-12-20T01:11:32;6.20;99.99
13496;DHT22;6820;49.374;8.452;2023-12-20T01:15:34;6.21;99.99
13496;DHT22;6820;49.374;8.452;2023-12-20T01:19:35;6.20;99.99
13496;DHT22;6820;49.374;8.452;2023-12-20T01:23:37;6.21;99.99
13496;DHT22;6820;49.374;8.452;2023-12-20T01:27:39;6.20;99.99
13496;DHT22;6820;49.374;8.452;2023-12-20T01:31:40;6.20;99.99
13496;DHT22;6820;49.374;8.452;2023-12-20T01:35:42;6.19;99.99
13496;DHT22;6820;49.374;8.452;2023-12-20T01:39:44;6.19;99.99
13496;DHT22;6820;49.374;8.452;2023-12-20T01:43:45;6.17;99.99
13496;DHT22;6820;49.374;8.452;2023-12-20T01:47:52;6.19;99.99
13496;DHT22;6820;49.374;8.452;2023-12-20T01:51:54;6.16;99.99
13496;DHT22;6820;49.374;8.452;2023-12-20T01:55:56;6.17;99.99
13496;DHT22;6820;49.374;8.452;2023-12-20T01:59:59;6.17;99.99
13496;DHT22;6820;49.374;8.452;2023-12-20T02:04:01;6.16;99.99
13496;DHT22;6820;49.374;8.452;2023-12-20T02:08:03;6.17;99.99
13496;DHT22;6820;49.374;8.452;2023-12-20T02:12:06;6.17;99.99
13496;DHT22;6820;49.374;8.452;2023-12-20T02:16:09;6.17;99.99
13496;DHT22;6820;49.374;8.452;2023-12-20T02:20:10;6.17;99.99
13496;DHT22;6820;49.374;8.452;2023-12-20T02:24:12;6.17;99.99
13496;DHT22;6820;49.374;8.452;2023-12-20T02:28:14;6.19;99.99
13496;DHT22;6820;49.374;8.452;2023-12-20T02:32:17;6.20;99.99
13496;DHT22;6820;49.374;8.452;2023-12-20T02:36:19;6.20;99.99
13496;DHT22;6820;49.374;8.452;2023-12-20T02:40:21;6.17;99.99
13496;DHT22;6820;49.374;8.452;2023-12-20T02:44:22;6.19;99.99
13496;DHT22;6820;49.374;8.452;2023-12-20T02:48:24;6.21;99.99
13496;DHT22;6820;49.374;8.452;2023-12-20T02:52:27;6.19;99.99
13496;DHT22;6820;49.374;8.452;2023-12-20T02:56:30;6.20;99.99
13496;DHT22;6820;49.374;8.452;2023-12-20T03:00:32;6.20;99.99
13496;DHT22;6820;49.374;8.452;2023-12-20T03:04:33;6.20;99.99
13496;DHT22;6820;49.374;8.452;2023-12-20T03:08:35;6.21;99.99
13496;DHT22;6820;49.374;8.452;2023-12-20T03:12:37;6.21;99.99
13496;DHT22;6820;49.374;8.452;2023-12-20T03:16:38;6.21;99.99
13496;DHT22;6820;49.374;8.452;2023-12-20T03:20:40;6.25;99.99
13496;DHT22;6820;49.374;8.452;2023-12-20T03:24:42;6.25;99.99
13496;DHT22;6820;49.374;8.452;2023-12-20T03:28:44;6.27;99.99
13496;DHT22;6820;49.374;8.452;2023-12-20T03:32:46;6.27;99.99
13496;DHT22;6820;49.374;8.452;2023-12-20T03:36:48;6.27;99.99
13496;DHT22;6820;49.374;8.452;2023-12-20T03:40:50;6.30;99.99
13496;DHT22;6820;49.374;8.452;2023-12-20T03:44:51;6.30;99.99
13496;DHT22;6820;49.374;8.452;2023-12-20T03:48:53;6.32;99.99
13496;DHT22;6820;49.374;8.452;2023-12-20T03:52:55;6.32;99.99
13496;DHT22;6820;49.374;8.452;2023-12-20T03:56:56;6.33;99.99
13496;DHT22;6820;49.374;8.452;2023-12-20T04:00:58;6.36;99.99
13496;DHT22;6820;49.374;8.452;2023-12-20T04:05:00;6.36;99.99
13496;DHT22;6820;49.374;8.452;2023-12-20T04:09:01;6.36;99.99
13496;DHT22;6820;49.374;8.452;2023-12-20T04:13:03;6.36;99.99
13496;DHT22;6820;49.374;8.452;2023-12-20T04:17:05;6.38;99.99
13496;DHT22;6820;49.374;8.452;2023-12-20T04:21:08;6.39;99.99
13496;DHT22;6820;49.374;8.452;2023-12-20T04:25:09;6.40;99.99
13496;DHT22;6820;49.374;8.452;2023-12-20T04:29:11;6.40;99.99
13496;DHT22;6820;49.374;8.452;2023-12-20T04:33:13;6.40;99.99
13496;DHT22;6820;49.374;8.452;2023-12-20T04:37:14;6.42;99.99
13496;DHT22;6820;49.374;8.452;2023-12-20T04:41:16;6.40;99.99
13496;DHT22;6820;49.374;8.452;2023-12-20T04:45:19;6.42;99.99
13496;DHT22;6820;49.374;8.452;2023-12-20T04:49:21;6.42;99.99
13496;DHT22;6820;49.374;8.452;2023-12-20T04:53:23;6.46;99.99
13496;DHT22;6820;49.374;8.452;2023-12-20T04:57:24;6.48;99.99
13496;DHT22;6820;49.374;8.452;2023-12-20T05:01:26;6.50;99.99
13496;DHT22;6820;49.374;8.452;2023-12-20T05:05:28;6.53;99.99
13496;DHT22;6820;49.374;8.452;2023-12-20T05:09:30;6.53;99.99
13496;DHT22;6820;49.374;8.452;2023-12-20T05:13:31;6.57;99.99
13496;DHT22;6820;49.374;8.452;2023-12-20T05:17:45;6.61;99.99
13496;DHT22;6820;49.374;8.452;2023-12-20T05:21:47;6.63;99.99
13496;DHT22;6820;49.374;8.452;2023-12-20T05:25:48;6.64;99.99
13496;DHT22;6820;49.374;8.452;2023-12-20T05:29:50;6.65;99.99
13496;DHT22;6820;49.374;8.452;2023-12-20T05:33:52;6.68;99.99
13496;DHT22;6820;49.374;8.452;2023-12-20T05:37:54;6.69;99.99
13496;DHT22;6820;49.374;8.452;2023-12-20T05:41:55;6.71;99.99
13496;DHT22;6820;49.374;8.452;2023-12-20T05:45:57;6.71;99.99
13496;DHT22;6820;49.374;8.452;2023-12-20T05:49:59;6.72;99.99
13496;DHT22;6820;49.374;8.452;2023-12-20T05:54:01;6.71;99.99
13496;DHT22;6820;49.374;8.452;2023-12-20T05:58:02;6.73;99.99
13496;DHT22;6820;49.374;8.452;2023-12-20T06:02:04;6.78;99.99
13496;DHT22;6820;49.374;8.452;2023-12-20T06:06:06;6.79;99.99
13496;DHT22;6820;49.374;8.452;2023-12-20T06:10:17;6.79;99.99
13496;DHT22;6820;49.374;8.452;2023-12-20T06:14:18;6.82;99.99
13496;DHT22;6820;49.374;8.452;2023-12-20T06:18:20;6.82;99.99
13496;DHT22;6820;49.374;8.452;2023-12-20T06:22:22;6.83;99.99
13496;DHT22;6820;49.374;8.452;2023-12-20T06:26:24;6.83;99.99
13496;DHT22;6820;49.374;8.452;2023-12-20T06:30:25;6.82;99.99
13496;DHT22;6820;49.374;8.452;2023-12-20T06:34:28;6.79;99.99
13496;DHT22;6820;49.374;8.452;2023-12-20T06:38:30;6.75;99.99
13496;DHT22;6820;49.374;8.452;2023-12-20T06:42:31;6.75;99.99
13496;DHT22;6820;49.374;8.452;2023-12-20T06:46:43;6.73;99.99
13496;DHT22;6820;49.374;8.452;2023-12-20T06:50:45;6.72;99.99
13496;DHT22;6820;49.374;8.452;2023-12-20T06:54:47;6.72;99.99
13496;DHT22;6820;49.374;8.452;2023-12-20T06:58:48;6.71;99.99
13496;DHT22;6820;49.374;8.452;2023-12-20T07:02:50;6.65;99.99
13496;DHT22;6820;49.374;8.452;2023-12-20T07:06:51;6.60;99.99
13496;DHT22;6820;49.374;8.452;2023-12-20T07:10:56;6.50;99.99
13496;DHT22;6820;49.374;8.452;2023-12-20T07:14:58;6.40;99.99
13496;DHT22;6820;49.374;8.452;2023-12-20T07:18:59;6.33;99.99
13496;DHT22;6820;49.374;8.452;2023-12-20T07:23:01;6.27;99.99
13496;DHT22;6820;49.374;8.452;2023-12-20T07:27:03;6.20;99.99
13496;DHT22;6820;49.374;8.452;2023-12-20T07:31:04;6.16;99.99
13496;DHT22;6820;49.374;8.452;2023-12-20T07:35:06;6.11;99.99
13496;DHT22;6820;49.374;8.452;2023-12-20T07:39:08;6.06;99.99
13496;DHT22;6820;49.374;8.452;2023-12-20T07:43:10;6.03;99.99
13496;DHT22;6820;49.374;8.452;2023-12-20T07:47:11;6.01;99.99
13496;DHT22;6820;49.374;8.452;2023-12-20T07:51:16;5.99;99.99
13496;DHT22;6820;49.374;8.452;2023-12-20T07:55:18;5.96;99.99
13496;DHT22;6820;49.374;8.452;2023-12-20T07:59:20;5.95;99.99
13496;DHT22;6820;49.374;8.452;2023-12-20T08:03:33;5.95;99.99
13496;DHT22;6820;49.374;8.452;2023-12-20T08:07:34;5.93;99.99
13496;DHT22;6820;49.374;8.452;2023-12-20T08:11:36;5.92;99.99
13496;DHT22;6820;49.374;8.452;2023-12-20T08:15:37;5.93;99.99
13496;DHT22;6820;49.374;8.452;2023-12-20T08:19:39;5.95;99.99
13496;DHT22;6820;49.374;8.452;2023-12-20T08:23:41;5.96;99.99
13496;DHT22;6820;49.374;8.452;2023-12-20T08:27:43;5.99;99.99
13496;DHT22;6820;49.374;8.452;2023-12-20T08:31:45;6.06;99.99
13496;DHT22;6820;49.374;8.452;2023-12-20T08:35:48;6.08;99.99
13496;DHT22;6820;49.374;8.452;2023-12-20T08:39:49;6.13;99.99
13496;DHT22;6820;49.374;8.452;2023-12-20T08:43:51;6.19;99.99
13496;DHT22;6820;49.374;8.452;2023-12-20T08:47:53;6.25;99.99
13496;DHT22;6820;49.374;8.452;2023-12-20T08:51:56;6.30;99.99
13496;DHT22;6820;49.374;8.452;2023-12-20T08:55:58;6.35;99.99
13496;DHT22;6820;49.374;8.452;2023-12-20T09:00:02;6.36;99.99
13496;DHT22;6820;49.374;8.452;2023-12-20T09:04:06;6.38;99.99
13496;DHT22;6820;49.374;8.452;2023-12-20T09:08:08;6.38;99.99
13496;DHT22;6820;49.374;8.452;2023-12-20T09:12:11;6.38;99.99
13496;DHT22;6820;49.374;8.452;2023-12-20T09:16:13;6.40;99.99
13496;DHT22;6820;49.374;8.452;2023-12-20T09:20:17;6.45;99.99
13496;DHT22;6820;49.374;8.452;2023-12-20T09:24:18;6.48;99.99
13496;DHT22;6820;49.374;8.452;2023-12-20T09:28:20;6.54;99.99
13496;DHT22;6820;49.374;8.452;2023-12-20T09:32:22;6.58;99.99
13496;DHT22;6820;49.374;8.452;2023-12-20T09:36:23;6.63;99.99
13496;DHT22;6820;49.374;8.452;2023-12-20T09:40:25;6.68;99.99
13496;DHT22;6820;49.374;8.452;2023-12-20T09:44:28;6.75;99.99
13496;DHT22;6820;49.374;8.452;2023-12-20T09:48:29;6.83;99.99
13496;DHT22;6820;49.374;8.452;2023-12-20T09:52:32;6.90;99.99
13496;DHT22;6820;49.374;8.452;2023-12-20T09:56:35;7.00;99.99
13496;DHT22;6820;49.374;8.452;2023-12-20T10:00:38;7.12;99.99
13496;DHT22;6820;49.374;8.452;2023-12-20T10:04:42;7.18;99.99
13496;DHT22;6820;49.374;8.452;2023-12-20T10:08:49;7.23;99.99
13496;DHT22;6820;49.374;8.452;2023-12-20T10:13:06;7.26;99.99
13496;DHT22;6820;49.374;8.452;2023-12-20T10:17:12;7.37;99.99
13496;DHT22;6820;49.374;8.452;2023-12-20T10:21:14;7.50;99.99
13496;DHT22;6820;49.374;8.452;2023-12-20T10:25:16;7.58;99.99
13496;DHT22;6820;49.374;8.452;2023-12-20T10:29:18;7.71;99.99
13496;DHT22;6820;49.374;8.452;2023-12-20T10:33:26;7.79;99.99
13496;DHT22;6820;49.374;8.452;2023-12-20T10:37:30;7.79;99.99
13496;DHT22;6820;49.374;8.452;2023-12-20T10:41:32;7.85;99.99
13496;DHT22;6820;49.374;8.452;2023-12-20T10:45:34;7.84;99.99
13496;DHT22;6820;49.374;8.452;2023-12-20T10:49:36;7.81;99.99
13496;DHT22;6820;49.374;8.452;2023-12-20T10:53:38;7.84;99.99
13496;DHT22;6820;49.374;8.452;2023-12-20T10:57:41;7.88;99.99
13496;DHT22;6820;49.374;8.452;2023-12-20T11:01:44;7.95;99.99
13496;DHT22;6820;49.374;8.452;2023-12-20T11:05:50;7.92;99.99
13496;DHT22;6820;49.374;8.452;2023-12-20T11:10:13;7.89;99.99
13496;DHT22;6820;49.374;8.452;2023-12-20T11:14:35;7.91;99.99
13496;DHT22;6820;49.374;8.452;2023-12-20T11:18:44;7.85;99.99
13496;DHT22;6820;49.374;8.452;2023-12-20T11:22:53;7.85;99.99
13496;DHT22;6820;49.374;8.452;2023-12-20T11:26:56;7.81;99.99
13496;DHT22;6820;49.374;8.452;2023-12-20T11:30:58;7.77;99.99
13496;DHT22;6820;49.374;8.452;2023-12-20T11:39:12;7.76;99.99
13496;DHT22;6820;49.374;8.452;2023-12-20T11:47:37;7.79;99.99
13496;DHT22;6820;49.374;8.452;2023-12-20T11:51:42;7.76;99.99
13496;DHT22;6820;49.374;8.452;2023-12-20T11:55:47;7.73;99.99
13496;DHT22;6820;49.374;8.452;2023-12-20T11:59:49;7.74;99.99
13496;DHT22;6820;49.374;8.452;2023-12-20T12:04:02;7.73;99.99
13496;DHT22;6820;49.374;8.452;2023-12-20T12:08:07;7.74;99.99
13496;DHT22;6820;49.374;8.452;2023-12-20T12:12:10;7.74;99.99
13496;DHT22;6820;49.374;8.452;2023-12-20T12:16:18;7.67;99.99
13496;DHT22;6820;49.374;8.452;2023-12-20T12:20:23;7.62;99.99
13496;DHT22;6820;49.374;8.452;2023-12-20T12:24:25;7.62;99.99
13496;DHT22;6820;49.374;8.452;2023-12-20T12:28:27;7.60;99.99
13496;DHT22;6820;49.374;8.452;2023-12-20T12:32:30;7.60;99.99
13496;DHT22;6820;49.374;8.452;2023-12-20T12:36:32;7.60;99.99
13496;DHT22;6820;49.374;8.452;2023-12-20T12:40:34;7.55;99.99
13496;DHT22;6820;49.374;8.452;2023-12-20T12:44:37;7.54;99.99
13496;DHT22;6820;49.374;8.452;2023-12-20T12:48:39;7.51;99.99
13496;DHT22;6820;49.374;8.452;2023-12-20T12:52:43;7.51;99.99
13496;DHT22;6820;49.374;8.452;2023-12-20T12:56:44;7.51;99.99
13496;DHT22;6820;49.374;8.452;2023-12-20T13:00:48;7.48;99.99
13496;DHT22;6820;49.374;8.452;2023-12-20T13:04:50;7.50;99.99
13496;DHT22;6820;49.374;8.452;2023-12-20T13:08:52;7.48;99.99
13496;DHT22;6820;49.374;8.452;2023-12-20T13:12:54;7.47;99.99
13496;DHT22;6820;49.374;8.452;2023-12-20T13:16:56;7.47;99.99
13496;DHT22;6820;49.374;8.452;2023-12-20T13:20:57;7.47;99.99
13496;DHT22;6820;49.374;8.452;2023-12-20T13:24:59;7.50;99.99
13496;DHT22;6820;49.374;8.452;2023-12-20T13:29:01;7.51;99.99
13496;DHT22;6820;49.374;8.452;2023-12-20T13:33:03;7.58;99.99
13496;DHT22;6820;49.374;8.452;2023-12-20T13:37:04;7.73;99.99
13496;DHT22;6820;49.374;8.452;2023-12-20T13:41:06;7.86;99.99
13496;DHT22;6820;49.374;8.452;2023-12-20T13:45:08;7.96;99.99
13496;DHT22;6820;49.374;8.452;2023-12-20T13:49:09;8.02;99.99
13496;DHT22;6820;49.374;8.452;2023-12-20T13:53:11;8.07;99.99
13496;DHT22;6820;49.374;8.452;2023-12-20T13:57:13;8.10;99.99
13496;DHT22;6820;49.374;8.452;2023-12-20T14:01:32;8.13;99.99
13496;DHT22;6820;49.374;8.452;2023-12-20T14:05:33;8.20;99.99
13496;DHT22;6820;49.374;8.452;2023-12-20T14:09:35;8.22;99.99
13496;DHT22;6820;49.374;8.452;2023-12-20T14:13:37;8.22;99.99
13496;DHT22;6820;49.374;8.452;2023-12-20T14:17:38;8.22;99.99
13496;DHT22;6820;49.374;8.452;2023-12-20T14:21:41;8.22;99.99
13496;DHT22;6820;49.374;8.452;2023-12-20T14:25:42;8.24;99.99
13496;DHT22;6820;49.374;8.452;2023-12-20T14:29:52;8.24;99.99
13496;DHT22;6820;49.374;8.452;2023-12-20T14:33:54;8.22;99.99
13496;DHT22;6820;49.374;8.452;2023-12-20T14:37:55;8.17;99.99
13496;DHT22;6820;49.374;8.452;2023-12-20T14:41:57;8.12;99.99
13496;DHT22;6820;49.374;8.452;2023-12-20T14:45:59;8.02;99.99
13496;DHT22;6820;49.374;8.452;2023-12-20T14:50:04;7.92;99.99
13496;DHT22;6820;49.374;8.452;2023-12-20T14:54:07;7.81;99.99
13496;DHT22;6820;49.374;8.452;2023-12-20T14:58:11;7.74;99.99
13496;DHT22;6820;49.374;8.452;2023-12-20T15:02:13;7.70;99.99
13496;DHT22;6820;49.374;8.452;2023-12-20T15:06:16;7.66;99.99
13496;DHT22;6820;49.374;8.452;2023-12-20T15:10:18;7.60;99.99
13496;DHT22;6820;49.374;8.452;2023-12-20T15:14:20;7.54;99.99
13496;DHT22;6820;49.374;8.452;2023-12-20T15:18:22;7.48;99.99
13496;DHT22;6820;49.374;8.452;2023-12-20T15:22:23;7.45;99.99
13496;DHT22;6820;49.374;8.452;2023-12-20T15:26:27;7.44;99.99
13496;DHT22;6820;49.374;8.452;2023-12-20T15:30:30;7.44;99.99
13496;DHT22;6820;49.374;8.452;2023-12-20T15:34:32;7.45;99.99
13496;DHT22;6820;49.374;8.452;2023-12-20T15:38:33;7.44;99.99
13496;DHT22;6820;49.374;8.452;2023-12-20T15:42:36;7.42;99.99
13496;DHT22;6820;49.374;8.452;2023-12-20T15:46:39;7.39;99.99
13496;DHT22;6820;49.374;8.452;2023-12-20T15:50:41;7.37;99.99
13496;DHT22;6820;49.374;8.452;2023-12-20T15:54:42;7.34;99.99
13496;DHT22;6820;49.374;8.452;2023-12-20T15:58:44;7.34;99.99
13496;DHT22;6820;49.374;8.452;2023-12-20T16:02:46;7.36;99.99
13496;DHT22;6820;49.374;8.452;2023-12-20T16:06:48;7.36;99.99
13496;DHT22;6820;49.374;8.452;2023-12-20T16:10:50;7.36;99.99
13496;DHT22;6820;49.374;8.452;2023-12-20T16:14:51;7.37;99.99
13496;DHT22;6820;49.374;8.452;2023-12-20T16:18:53;7.36;99.99
13496;DHT22;6820;49.374;8.452;2023-12-20T16:22:55;7.39;99.99
13496;DHT22;6820;49.374;8.452;2023-12-20T16:26:56;7.37;99.99
13496;DHT22;6820;49.374;8.452;2023-12-20T16:30:58;7.37;99.99
13496;DHT22;6820;49.374;8.452;2023-12-20T16:35:00;7.41;99.99
13496;DHT22;6820;49.374;8.452;2023-12-20T16:39:03;7.39;99.99
13496;DHT22;6820;49.374;8.452;2023-12-20T16:43:05;7.41;99.99
13496;DHT22;6820;49.374;8.452;2023-12-20T16:47:06;7.41;99.99
13496;DHT22;6820;49.374;8.452;2023-12-20T16:51:08;7.39;99.99
13496;DHT22;6820;49.374;8.452;2023-12-20T16:55:10;7.41;99.99
13496;DHT22;6820;49.374;8.452;2023-12-20T16:59:12;7.41;99.99
13496;DHT22;6820;49.374;8.452;2023-12-20T17:03:14;7.39;99.99
13496;DHT22;6820;49.374;8.452;2023-12-20T17:07:16;7.37;99.99
13496;DHT22;6820;49.374;8.452;2023-12-20T17:11:18;7.39;99.99
13496;DHT22;6820;49.374;8.452;2023-12-20T17:15:22;7.37;99.99
13496;DHT22;6820;49.374;8.452;2023-12-20T17:19:24;7.37;99.99
13496;DHT22;6820;49.374;8.452;2023-12-20T17:23:26;7.37;99.99
13496;DHT22;6820;49.374;8.452;2023-12-20T17:27:27;7.39;99.99
13496;DHT22;6820;49.374;8.452;2023-12-20T17:31:29;7.39;99.99
13496;DHT22;6820;49.374;8.452;2023-12-20T17:35:31;7.39;99.99
13496;DHT22;6820;49.374;8.452;2023-12-20T17:39:32;7.42;99.99
13496;DHT22;6820;49.374;8.452;2023-12-20T17:43:34;7.42;99.99
13496;DHT22;6820;49.374;8.452;2023-12-20T17:47:36;7.44;99.99
13496;DHT22;6820;49.374;8.452;2023-12-20T17:51:38;7.45;99.99
13496;DHT22;6820;49.374;8.452;2023-12-20T17:55:39;7.45;99.99
13496;DHT22;6820;49.374;8.452;2023-12-20T17:59:41;7.48;99.99
13496;DHT22;6820;49.374;8.452;2023-12-20T18:03:43;7.47;99.99
13496;DHT22;6820;49.374;8.452;2023-12-20T18:07:44;7.47;99.99
13496;DHT22;6820;49.374;8.452;2023-12-20T18:11:48;7.48;99.99
13496;DHT22;6820;49.374;8.452;2023-12-20T18:15:50;7.47;99.99
13496;DHT22;6820;49.374;8.452;2023-12-20T18:19:51;7.47;99.99
13496;DHT22;6820;49.374;8.452;2023-12-20T18:23:53;7.48;99.99
13496;DHT22;6820;49.374;8.452;2023-12-20T18:28:05;7.47;99.99
13496;DHT22;6820;49.374;8.452;2023-12-20T18:32:07;7.48;99.99
13496;DHT22;6820;49.374;8.452;2023-12-20T18:36:09;7.50;99.99
13496;DHT22;6820;49.374;8.452;2023-12-20T18:40:11;7.48;99.99
13496;DHT22;6820;49.374;8.452;2023-12-20T18:44:12;7.48;99.99
13496;DHT22;6820;49.374;8.452;2023-12-20T18:48:14;7.50;99.99
13496;DHT22;6820;49.374;8.452;2023-12-20T18:52:16;7.50;99.99
13496;DHT22;6820;49.374;8.452;2023-12-20T18:56:18;7.50;99.99
13496;DHT22;6820;49.374;8.452;2023-12-20T19:00:19;7.48;99.99
13496;DHT22;6820;49.374;8.452;2023-12-20T19:04:22;7.50;99.99
13496;DHT22;6820;49.374;8.452;2023-12-20T19:08:24;7.47;99.99
13496;DHT22;6820;49.374;8.452;2023-12-20T19:12:25;7.45;99.99
13496;DHT22;6820;49.374;8.452;2023-12-20T19:16:27;7.48;99.99
13496;DHT22;6820;49.374;8.452;2023-12-20T19:20:29;7.45;99.99
13496;DHT22;6820;49.374;8.452;2023-12-20T19:24:31;7.47;99.99
13496;DHT22;6820;49.374;8.452;2023-12-20T19:28:32;7.44;99.99
13496;DHT22;6820;49.374;8.452;2023-12-20T19:32:35;7.42;99.99
13496;DHT22;6820;49.374;8.452;2023-12-20T19:36:37;7.45;99.99
13496;DHT22;6820;49.374;8.452;2023-12-20T19:40:38;7.42;99.99
13496;DHT22;6820;49.374;8.452;2023-12-20T19:44:40;7.39;99.99
13496;DHT22;6820;49.374;8.452;2023-12-20T19:48:42;7.41;99.99
13496;DHT22;6820;49.374;8.452;2023-12-20T19:52:45;7.37;99.99
13496;DHT22;6820;49.374;8.452;2023-12-20T19:56:47;7.37;99.99
13496;DHT22;6820;49.374;8.452;2023-12-20T20:00:51;7.36;99.99
13496;DHT22;6820;49.374;8.452;2023-12-20T20:04:56;7.37;99.99
13496;DHT22;6820;49.374;8.452;2023-12-20T20:08:58;7.36;99.99
13496;DHT22;6820;49.374;8.452;2023-12-20T20:12:59;7.36;99.99
13496;DHT22;6820;49.374;8.452;2023-12-20T20:17:02;7.34;99.99
13496;DHT22;6820;49.374;8.452;2023-12-20T20:21:04;7.34;99.99
13496;DHT22;6820;49.374;8.452;2023-12-20T20:25:09;7.33;99.99
13496;DHT22;6820;49.374;8.452;2023-12-20T20:29:11;7.32;99.99
13496;DHT22;6820;49.374;8.452;2023-12-20T20:33:13;7.30;99.99
13496;DHT22;6820;49.374;8.452;2023-12-20T20:37:15;7.27;99.99
13496;DHT22;6820;49.374;8.452;2023-12-20T20:41:17;7.24;99.99
13496;DHT22;6820;49.374;8.452;2023-12-20T20:45:18;7.23;99.99
13496;DHT22;6820;49.374;8.452;2023-12-20T20:49:20;7.21;99.99
13496;DHT22;6820;49.374;8.452;2023-12-20T20:53:22;7.18;99.99
13496;DHT22;6820;49.374;8.452;2023-12-20T20:57:24;7.14;99.99
13496;DHT22;6820;49.374;8.452;2023-12-20T21:01:26;7.12;99.99
13496;DHT22;6820;49.374;8.452;2023-12-20T21:05:28;7.11;99.99
13496;DHT22;6820;49.374;8.452;2023-12-20T21:09:30;7.09;99.99
13496;DHT22;6820;49.374;8.452;2023-12-20T21:13:31;7.08;99.99
13496;DHT22;6820;49.374;8.452;2023-12-20T21:17:33;7.07;99.99
13496;DHT22;6820;49.374;8.452;2023-12-20T21:21:35;7.07;99.99
13496;DHT22;6820;49.374;8.452;2023-12-20T21:25:37;7.05;99.99
13496;DHT22;6820;49.374;8.452;2023-12-20T21:29:38;7.05;99.99
13496;DHT22;6820;49.374;8.452;2023-12-20T21:33:40;7.05;99.99
13496;DHT22;6820;49.374;8.452;2023-12-20T21:37:43;7.04;99.99
13496;DHT22;6820;49.374;8.452;2023-12-20T21:41:46;7.05;99.99
13496;DHT22;6820;49.374;8.452;2023-12-20T21:45:48;7.04;99.99
13496;DHT22;6820;49.374;8.452;2023-12-20T21:49:49;7.01;99.99
13496;DHT22;6820;49.374;8.452;2023-12-20T21:53:52;7.01;99.99
13496;DHT22;6820;49.374;8.452;2023-12-20T21:57:55;7.01;99.99
13496;DHT22;6820;49.374;8.452;2023-12-20T22:01:57;6.99;99.99
13496;DHT22;6820;49.374;8.452;2023-12-20T22:05:59;6.96;99.99
13496;DHT22;6820;49.374;8.452;2023-12-20T22:10:01;6.94;99.99
13496;DHT22;6820;49.374;8.452;2023-12-20T22:14:03;6.91;99.99
13496;DHT22;6820;49.374;8.452;2023-12-20T22:18:05;6.93;99.99
13496;DHT22;6820;49.374;8.452;2023-12-20T22:22:06;6.90;99.99
13496;DHT22;6820;49.374;8.452;2023-12-20T22:26:08;6.89;99.99
13496;DHT22;6820;49.374;8.452;2023-12-20T22:30:10;6.86;99.99
13496;DHT22;6820;49.374;8.452;2023-12-20T22:34:12;6.87;99.99
13496;DHT22;6820;49.374;8.452;2023-12-20T22:38:14;6.82;99.99
13496;DHT22;6820;49.374;8.452;2023-12-20T22:42:16;6.81;99.99
13496;DHT22;6820;49.374;8.452;2023-12-20T22:46:18;6.79;99.99
13496;DHT22;6820;49.374;8.452;2023-12-20T22:50:20;6.82;99.99
13496;DHT22;6820;49.374;8.452;2023-12-20T22:54:24;6.82;99.99
13496;DHT22;6820;49.374;8.452;2023-12-20T22:58:26;6.82;99.99
13496;DHT22;6820;49.374;8.452;2023-12-20T23:02:28;6.81;99.99
13496;DHT22;6820;49.374;8.452;2023-12-20T23:06:30;6.83;99.99
13496;DHT22;6820;49.374;8.452;2023-12-20T23:10:31;6.81;99.99
13496;DHT22;6820;49.374;8.452;2023-12-20T23:14:33;6.81;99.99
13496;DHT22;6820;49.374;8.452;2023-12-20T23:18:35;6.81;99.99
13496;DHT22;6820;49.374;8.452;2023-12-20T23:22:37;6.81;99.99
13496;DHT22;6820;49.374;8.452;2023-12-20T23:26:38;6.83;99.99
13496;DHT22;6820;49.374;8.452;2023-12-20T23:30:40;6.83;99.99
13496;DHT22;6820;49.374;8.452;2023-12-20T23:34:42;6.82;99.99
13496;DHT22;6820;49.374;8.452;2023-12-20T23:38:44;6.82;99.99
13496;DHT22;6820;49.374;8.452;2023-12-20T23:42:46;6.81;99.99
13496;DHT22;6820;49.374;8.452;2023-12-20T23:46:47;6.82;99.99
13496;DHT22;6820;49.374;8.452;2023-12-20T23:50:49;6.78;99.99
13496;DHT22;6820;49.374;8.452;2023-12-20T23:54:51;6.76;99.99
13496;DHT22;6820;49.374;8.452;2023-12-20T23:58:52;6.81;99.99
